Time;durP1;ratioP1;P1;durP2;ratioP2;P2;SDS_P1;SDS_P2;PMS_P1;PMS_P2;Temp;Humidity;BMP_temperature;BMP_pressure;BME280_temperature;BME280_humidity;BME280_pressure;Samples;Min_cycle;Max_cycle;Signal;HPM_P1;HPM_P2
2021/08/23 00:00:01;;;;;;;8.45;4.65;;;;;;;12.91;100.00;96263.75;1019351;29;20226;-77
2021/08/23 00:00:31;;;;;;;8.18;4.70;;;;;;;12.78;100.00;96248.47;1023029;29;20027;-78
2021/08/23 00:01:02;;;;;;;5.30;4.50;;;;;;;12.89;100.00;96260.56;1019108;29;20015;-78
2021/08/23 00:01:35;;;;;;;9.57;4.78;;;;;;;12.86;100.00;96269.00;1023082;29;20465;-76
2021/08/23 00:02:05;;;;;;;6.60;3.78;;;;;;;12.82;100.00;96260.06;1023166;29;20030;-77
2021/08/23 00:02:36;;;;;;;6.63;4.00;;;;;;;12.89;100.00;96276.38;1024422;28;20255;-77
2021/08/23 00:03:06;;;;;;;6.57;4.22;;;;;;;12.78;100.00;96264.28;1031246;28;20018;-77
2021/08/23 00:03:37;;;;;;;5.60;3.90;;;;;;;12.80;100.00;96256.09;1023168;29;20028;-77
2021/08/23 00:04:07;;;;;;;5.90;4.20;;;;;;;12.72;100.00;96258.22;1014960;29;20028;-76
2021/08/23 00:04:38;;;;;;;5.68;4.22;;;;;;;12.83;100.00;96272.16;1019633;29;20471;-78
2021/08/23 00:05:09;;;;;;;8.43;4.40;;;;;;;12.69;100.00;96255.31;1019347;29;20119;-76
2021/08/23 00:05:40;;;;;;;5.72;4.53;;;;;;;12.61;100.00;96242.66;1018105;28;20020;-77
2021/08/23 00:06:10;;;;;;;6.15;3.70;;;;;;;12.78;100.00;96266.91;1022833;29;20366;-77
2021/08/23 00:06:42;;;;;;;7.65;3.97;;;;;;;12.76;100.00;96266.38;1015528;29;20028;-78
2021/08/23 00:07:12;;;;;;;6.88;4.78;;;;;;;12.72;100.00;96260.84;1020242;28;20031;-78
2021/08/23 00:07:44;;;;;;;6.30;4.55;;;;;;;12.73;100.00;96272.16;1019507;29;20256;-77
2021/08/23 00:08:16;;;;;;;7.30;4.70;;;;;;;12.64;100.00;96263.19;1019433;29;20023;-76
2021/08/23 00:08:47;;;;;;;9.00;4.53;;;;;;;12.66;100.00;96261.09;1019024;29;20263;-77
2021/08/23 00:09:19;;;;;;;9.00;3.55;;;;;;;12.62;100.00;96262.69;1016789;29;20790;-78
2021/08/23 00:09:50;;;;;;;7.30;4.80;;;;;;;12.60;100.00;96264.78;1023465;29;20369;-76
2021/08/23 00:10:21;;;;;;;8.60;4.72;;;;;;;12.64;100.00;96263.19;1019226;29;20282;-76
2021/08/23 00:10:52;;;;;;;5.60;4.35;;;;;;;12.65;100.00;96267.44;1021867;28;20262;-77
2021/08/23 00:11:23;;;;;;;10.35;4.88;;;;;;;12.58;100.00;96256.38;1019380;29;20028;-78
2021/08/23 00:11:54;;;;;;;6.13;4.00;;;;;;;12.64;100.00;96268.47;1023305;28;20278;-77
2021/08/23 00:12:26;;;;;;;4.30;3.88;;;;;;;12.60;100.00;96267.41;1025188;28;20028;-77
2021/08/23 00:12:57;;;;;;;8.55;4.78;;;;;;;12.47;100.00;96245.81;1023390;29;20699;-77
2021/08/23 00:13:27;;;;;;;7.53;4.45;;;;;;;12.62;100.00;96270.59;1027129;28;20383;-77
2021/08/23 00:13:58;;;;;;;6.70;4.35;;;;;;;12.47;100.00;96253.72;1026466;28;20070;-77
2021/08/23 00:14:28;;;;;;;9.73;4.60;;;;;;;12.56;100.00;96267.16;1022559;28;20413;-77
2021/08/23 00:14:58;;;;;;;6.65;4.60;;;;;;;12.59;100.00;96273.72;1026862;28;20034;-77
2021/08/23 00:15:29;;;;;;;6.32;4.47;;;;;;;12.55;100.00;96270.06;1021768;28;20028;-77
2021/08/23 00:15:59;;;;;;;6.75;4.50;;;;;;;12.56;100.00;96275.03;1022449;28;20416;-76
2021/08/23 00:16:30;;;;;;;10.02;4.97;;;;;;;12.43;100.00;96252.66;1023504;29;20016;-77
2021/08/23 00:17:01;;;;;;;12.77;5.18;;;;;;;12.54;100.00;96268.44;1019450;29;20015;-78
2021/08/23 00:17:31;;;;;;;7.47;5.32;;;;;;;12.42;100.00;96255.56;1021582;28;20358;-78
2021/08/23 00:18:02;;;;;;;9.13;4.85;;;;;;;12.34;100.00;96245.53;1023487;28;20039;-77
2021/08/23 00:18:32;;;;;;;8.35;4.88;;;;;;;12.48;100.00;96271.09;1023371;28;20035;-77
2021/08/23 00:19:03;;;;;;;6.35;4.97;;;;;;;12.45;100.00;96274.25;1023898;28;20609;-77
2021/08/23 00:19:34;;;;;;;9.15;4.78;;;;;;;12.34;100.00;96250.78;1020365;29;20069;-77
2021/08/23 00:20:04;;;;;;;6.88;4.80;;;;;;;12.32;100.00;96255.53;1023394;28;20016;-77
2021/08/23 00:20:50;;;;;;;6.55;4.50;;;;;;;12.26;100.00;96249.47;1019727;29;20505;-77
2021/08/23 00:21:23;;;;;;;10.43;5.30;;;;;;;12.41;100.00;96275.03;1023176;29;20121;-78
2021/08/23 00:22:01;;;;;;;7.82;5.10;;;;;;;12.28;100.00;96257.91;1025894;28;20321;-77
2021/08/23 00:22:35;;;;;;;9.90;4.70;;;;;;;12.39;100.00;96277.91;1026198;28;20270;-78
2021/08/23 00:23:10;;;;;;;10.45;4.82;;;;;;;12.30;100.00;96258.41;1019738;29;20265;-77
2021/08/23 00:23:49;;;;;;;7.38;5.18;;;;;;;12.37;100.00;96272.09;1019325;29;20370;-78
2021/08/23 00:24:23;;;;;;;8.77;5.10;;;;;;;12.25;100.00;96253.16;1022563;28;20808;-78
2021/08/23 00:24:54;;;;;;;8.52;5.20;;;;;;;12.23;100.00;96257.88;1023275;28;20286;-77
2021/08/23 00:25:25;;;;;;;7.00;4.90;;;;;;;12.24;100.00;96254.22;1023347;29;20773;-77
2021/08/23 00:25:55;;;;;;;7.53;4.72;;;;;;;12.31;100.00;96267.91;1019435;29;20020;-77
2021/08/23 00:26:26;;;;;;;8.55;5.20;;;;;;;12.38;100.00;96275.56;1018869;29;20024;-77
2021/08/23 00:26:59;;;;;;;6.07;4.47;;;;;;;12.35;100.00;96270.81;1023324;29;20023;-76
2021/08/23 00:27:30;;;;;;;10.20;5.20;;;;;;;12.25;100.00;96253.94;1023850;28;20031;-76
2021/08/23 00:28:00;;;;;;;5.05;4.32;;;;;;;12.42;100.00;96274.75;1025613;28;20781;-77
2021/08/23 00:28:31;;;;;;;6.50;5.05;;;;;;;12.35;100.00;96260.28;1025952;28;20030;-78
2021/08/23 00:29:01;;;;;;;7.70;5.63;;;;;;;12.38;100.00;96263.19;1023346;29;20031;-77
2021/08/23 00:29:32;;;;;;;9.38;5.55;;;;;;;12.36;100.00;96253.97;1015471;29;20067;-78
2021/08/23 00:30:05;;;;;;;8.18;4.65;;;;;;;12.50;100.00;96270.81;1025966;28;20067;-78
2021/08/23 00:30:36;;;;;;;10.25;5.93;;;;;;;12.38;100.00;96250.03;1027239;28;20156;-77
2021/08/23 00:31:06;;;;;;;17.30;5.32;;;;;;;12.33;100.00;96244.72;1011417;29;20261;-78
2021/08/23 00:31:37;;;;;;;7.25;4.65;;;;;;;12.50;100.00;96262.91;1019438;28;20024;-78
2021/08/23 00:32:08;;;;;;;8.00;5.07;;;;;;;12.46;100.00;96252.13;1023202;29;20027;-77
2021/08/23 00:32:39;;;;;;;8.07;4.70;;;;;;;12.53;100.00;96266.88;1019451;29;20318;-77
2021/08/23 00:33:09;;;;;;;8.68;4.82;;;;;;;12.52;100.00;96266.09;1022778;29;20098;-78
2021/08/23 00:33:40;;;;;;;5.28;4.68;;;;;;;12.45;100.00;96255.81;1023555;29;20023;-77
2021/08/23 00:34:10;;;;;;;6.53;5.03;;;;;;;12.49;100.00;96256.88;1023249;29;20026;-77
2021/08/23 00:34:41;;;;;;;5.00;4.43;;;;;;;12.48;100.00;96255.28;1023555;29;20024;-76
2021/08/23 00:35:11;;;;;;;6.28;4.78;;;;;;;12.35;100.00;96231.34;1023182;28;20028;-78
2021/08/23 00:35:42;;;;;;;6.40;4.65;;;;;;;12.58;100.00;96270.31;1023733;28;20023;-76
2021/08/23 00:36:12;;;;;;;9.73;5.30;;;;;;;12.61;100.00;96263.72;1023472;29;20019;-76
2021/08/23 00:36:43;;;;;;;7.10;4.90;;;;;;;12.52;100.00;96249.50;1025120;28;20023;-78
2021/08/23 00:37:15;;;;;;;7.47;4.93;;;;;;;12.53;100.00;96253.72;1027310;28;20026;-77
2021/08/23 00:37:46;;;;;;;7.85;4.63;;;;;;;12.52;100.00;96244.25;1031440;28;20056;-77
2021/08/23 00:38:20;;;;;;;7.70;4.50;;;;;;;12.55;100.00;96254.25;1025826;28;20294;-77
2021/08/23 00:38:52;;;;;;;6.82;4.80;;;;;;;12.55;100.00;96249.78;1020161;29;20268;-77
2021/08/23 00:39:23;;;;;;;10.90;4.63;;;;;;;12.60;100.00;96251.63;1023580;28;20050;-77
2021/08/23 00:39:53;;;;;;;7.90;5.30;;;;;;;12.64;100.00;96260.56;1023143;28;20262;-76
2021/08/23 00:42:09;;;;;;;8.57;4.50;;;;;;;12.68;100.00;96259.00;1042540;23;20077;-68
2021/08/23 00:42:40;;;;;;;5.93;4.78;;;;;;;12.68;100.00;96264.28;1033281;28;20291;-69
2021/08/23 00:43:10;;;;;;;7.13;4.80;;;;;;;12.66;100.00;96261.09;1035453;28;20017;-68
2021/08/23 00:43:41;;;;;;;7.78;4.47;;;;;;;12.67;100.00;96252.94;1030850;28;20034;-69
2021/08/23 00:44:11;;;;;;;7.15;4.90;;;;;;;12.67;100.00;96252.13;1033227;28;20042;-68
2021/08/23 00:44:42;;;;;;;9.20;4.82;;;;;;;12.69;100.00;96255.31;1033047;28;20029;-70
2021/08/23 00:45:13;;;;;;;4.65;3.80;;;;;;;12.69;100.00;96250.03;1027331;28;20081;-68
2021/08/23 00:45:45;;;;;;;5.07;4.32;;;;;;;12.69;100.00;96260.56;1030530;28;20031;-68
2021/08/23 00:46:15;;;;;;;6.38;4.22;;;;;;;12.67;100.00;96258.19;1027605;28;20054;-69
2021/08/23 00:46:46;;;;;;;6.63;4.70;;;;;;;12.69;100.00;96250.84;1023777;28;20760;-69
2021/08/23 00:47:16;;;;;;;10.48;4.85;;;;;;;12.65;100.00;96249.00;1019759;29;20319;-69
2021/08/23 00:47:47;;;;;;;10.15;5.00;;;;;;;12.68;100.00;96261.63;1015487;29;20397;-68
2021/08/23 00:48:17;;;;;;;9.63;4.90;;;;;;;12.68;100.00;96253.75;1019674;28;20071;-67
2021/08/23 00:48:48;;;;;;;7.80;4.68;;;;;;;12.65;100.00;96257.69;1026876;28;20030;-67
2021/08/23 00:49:18;;;;;;;6.90;4.55;;;;;;;12.69;100.00;96255.31;1026705;28;20038;-69
2021/08/23 00:49:48;;;;;;;7.05;5.05;;;;;;;12.64;100.00;96248.22;1019550;29;20031;-68
2021/08/23 00:50:19;;;;;;;5.75;4.10;;;;;;;12.70;100.00;96249.78;1019293;29;20050;-69
2021/08/23 00:50:50;;;;;;;7.88;4.53;;;;;;;12.72;100.00;96252.16;1023257;28;20038;-69
2021/08/23 00:51:20;;;;;;;6.97;4.18;;;;;;;12.66;100.00;96258.47;1023006;28;20274;-67
2021/08/23 00:51:52;;;;;;;5.07;4.32;;;;;;;12.69;100.00;96255.31;1027568;28;20023;-68
2021/08/23 00:52:22;;;;;;;7.05;4.35;;;;;;;12.66;100.00;96255.84;1027526;28;20428;-68
2021/08/23 00:52:53;;;;;;;12.18;4.65;;;;;;;12.66;100.00;96255.84;1015708;29;20275;-69
2021/08/23 00:53:23;;;;;;;6.38;4.97;;;;;;;12.68;100.00;96264.28;1016509;29;20035;-68
2021/08/23 00:53:54;;;;;;;7.28;4.80;;;;;;;12.69;100.00;96253.47;1019030;29;20120;-68
2021/08/23 00:54:24;;;;;;;6.55;4.70;;;;;;;12.69;100.00;96265.84;1018874;29;20107;-69
2021/08/23 00:54:55;;;;;;;7.45;4.60;;;;;;;12.63;100.00;96241.34;1019564;29;20027;-68
2021/08/23 00:55:25;;;;;;;7.47;5.00;;;;;;;12.72;100.00;96254.78;1023097;29;20079;-69
2021/08/23 00:55:55;;;;;;;7.30;4.28;;;;;;;12.65;100.00;96243.72;1023344;29;20180;-68
2021/08/23 00:56:26;;;;;;;9.32;4.35;;;;;;;12.73;100.00;96256.34;1019649;29;20036;-69
2021/08/23 00:56:56;;;;;;;7.03;4.80;;;;;;;12.71;100.00;96253.22;1015811;29;20163;-70
2021/08/23 00:57:27;;;;;;;6.68;4.80;;;;;;;12.65;100.00;96243.72;1015640;29;20507;-69
2021/08/23 00:57:59;;;;;;;7.40;4.70;;;;;;;12.72;100.00;96252.94;1015421;29;20065;-68
2021/08/23 00:58:29;;;;;;;9.32;4.85;;;;;;;12.76;100.00;96255.06;1019318;29;20501;-68
2021/08/23 00:59:00;;;;;;;11.30;4.85;;;;;;;12.77;100.00;96248.72;1015873;29;20260;-68
2021/08/23 00:59:34;;;;;;;8.52;5.55;;;;;;;12.76;100.00;96252.41;1019969;28;20032;-69
2021/08/23 01:00:05;;;;;;;9.13;4.93;;;;;;;12.78;100.00;96256.38;1023974;28;20218;-66
2021/08/23 01:00:36;;;;;;;8.02;4.88;;;;;;;12.72;100.00;96245.03;1027449;28;20706;-68
2021/08/23 01:01:09;;;;;;;11.38;4.97;;;;;;;12.81;100.00;96255.03;1023354;29;20114;-68
2021/08/23 01:01:49;;;;;;;9.23;4.60;;;;;;;12.79;100.00;96257.94;1018514;29;20038;-69
2021/08/23 01:02:26;;;;;;;7.20;4.68;;;;;;;12.78;100.00;96256.38;1019650;29;20367;-69
2021/08/23 01:03:32;;;;;;;6.75;4.43;;;;;;;12.80;100.00;96250.84;1017332;29;20739;-68
2021/08/23 01:04:04;;;;;;;6.03;4.10;;;;;;;12.77;100.00;96246.88;1003077;29;20289;-67
2021/08/23 01:05:08;;;;;;;10.35;5.47;;;;;;;12.82;100.00;96249.53;1005117;29;20735;-69
2021/08/23 01:05:38;;;;;;;6.55;4.30;;;;;;;12.79;100.00;96247.41;1022923;28;20735;-68
2021/08/23 01:06:09;;;;;;;8.15;4.68;;;;;;;12.79;100.00;96242.16;1023071;28;20282;-68
2021/08/23 01:06:39;;;;;;;7.35;4.50;;;;;;;12.80;100.00;96240.28;1019665;29;20565;-69
2021/08/23 01:07:12;;;;;;;5.72;4.60;;;;;;;12.80;100.00;96242.94;1015277;29;20024;-68
2021/08/23 01:07:49;;;;;;;8.60;4.80;;;;;;;12.81;100.00;96247.13;1023782;28;20468;-69
2021/08/23 01:08:30;;;;;;;7.82;4.68;;;;;;;12.82;100.00;96249.53;1024782;28;20298;-68
2021/08/23 01:09:07;;;;;;;;;;;;;;;12.81;100.00;96242.69;1030279;28;20258;-69
2021/08/23 01:09:39;;;;;;;5.97;4.05;;;;;;;12.79;100.00;96244.78;1027414;28;19914;-69
2021/08/23 01:10:10;;;;;;;6.82;4.70;;;;;;;12.72;100.00;96233.72;1022442;28;20660;-68
2021/08/23 01:10:49;;;;;;;4.95;3.92;;;;;;;12.79;100.00;96244.78;1019277;29;20269;-68
2021/08/23 01:11:19;;;;;;;6.75;4.45;;;;;;;12.76;100.00;96240.03;1020623;29;20323;-69
2021/08/23 01:11:54;;;;;;;9.48;5.15;;;;;;;12.78;100.00;96252.97;1027370;28;20279;-67
2021/08/23 01:12:24;;;;;;;6.93;4.28;;;;;;;12.78;100.00;96245.84;1025228;28;20026;-69
2021/08/23 01:12:55;;;;;;;6.43;5.30;;;;;;;12.80;100.00;96246.34;1019377;29;20271;-69
2021/08/23 01:13:27;;;;;;;6.00;4.18;;;;;;;12.80;100.00;96251.63;1020335;29;20463;-68
2021/08/23 01:13:57;;;;;;;8.57;4.10;;;;;;;12.80;100.00;96246.34;1018906;29;20020;-68
2021/08/23 01:14:28;;;;;;;7.55;4.60;;;;;;;12.82;100.00;96243.47;1019704;28;20271;-68
2021/08/23 01:14:58;;;;;;;7.22;4.80;;;;;;;12.80;100.00;96246.34;1027913;28;20675;-69
2021/08/23 01:15:29;;;;;;;6.68;4.53;;;;;;;12.81;100.00;96245.31;1023001;28;20071;-69
2021/08/23 01:16:00;;;;;;;5.03;3.83;;;;;;;12.77;100.00;96241.59;1027424;28;20518;-68
2021/08/23 01:16:30;;;;;;;7.35;4.25;;;;;;;12.81;100.00;96242.69;1027395;28;20093;-68
2021/08/23 01:17:00;;;;;;;7.78;4.28;;;;;;;12.79;100.00;96246.63;1023586;28;20456;-69
2021/08/23 01:17:31;;;;;;;7.78;4.55;;;;;;;12.80;100.00;96242.94;1031192;28;20053;-68
2021/08/23 01:18:02;;;;;;;4.78;4.28;;;;;;;12.80;100.00;96246.34;1023337;29;20606;-69
2021/08/23 01:18:32;;;;;;;6.22;4.18;;;;;;;12.76;100.00;96233.97;1026376;28;20031;-68
2021/08/23 01:19:04;;;;;;;8.63;4.40;;;;;;;12.77;100.00;96241.59;1031227;28;20027;-68
2021/08/23 01:19:34;;;;;;;7.03;4.00;;;;;;;12.81;100.00;96242.69;1025872;28;20034;-68
2021/08/23 01:20:05;;;;;;;5.55;4.47;;;;;;;12.83;100.00;96247.69;1015494;29;20260;-68
2021/08/23 01:20:43;;;;;;;6.97;4.47;;;;;;;12.80;100.00;96240.28;1021465;29;20037;-68
2021/08/23 01:21:15;;;;;;;7.00;4.47;;;;;;;12.82;100.00;96246.88;1022606;29;20277;-68
2021/08/23 01:21:46;;;;;;;9.63;4.25;;;;;;;12.81;100.00;96236.59;1020487;29;20322;-68
2021/08/23 01:22:16;;;;;;;6.40;4.45;;;;;;;12.81;100.00;96241.88;1015306;29;20328;-69
2021/08/23 01:22:50;;;;;;;6.15;3.90;;;;;;;12.84;100.00;96238.72;1015535;29;20024;-69
2021/08/23 01:23:21;;;;;;;5.90;4.28;;;;;;;12.84;100.00;96244.75;1019412;29;20497;-69
2021/08/23 01:23:52;;;;;;;5.47;3.95;;;;;;;12.79;100.00;96231.63;1019378;29;20757;-69
2021/08/23 01:24:22;;;;;;;5.45;4.18;;;;;;;12.79;100.00;96236.09;1019944;29;20075;-69
2021/08/23 01:24:53;;;;;;;6.47;4.43;;;;;;;12.83;100.00;96240.56;1018922;29;20023;-68
2021/08/23 01:25:28;;;;;;;6.88;4.32;;;;;;;12.85;100.00;96238.47;1021260;29;20027;-68
2021/08/23 01:25:58;;;;;;;8.70;4.78;;;;;;;12.86;100.00;96245.31;1018501;29;20258;-69
2021/08/23 01:26:31;;;;;;;8.90;4.70;;;;;;;12.87;100.00;96249.50;1017583;29;20335;-67
2021/08/23 01:27:02;;;;;;;10.40;4.20;;;;;;;12.84;100.00;96238.72;1020318;29;20450;-68
2021/08/23 01:27:34;;;;;;;6.65;4.10;;;;;;;12.88;100.00;96237.16;1018362;29;20350;-69
2021/08/23 01:28:28;;;;;;;6.68;4.22;;;;;;;12.92;100.00;96244.25;1019186;29;20268;-68
2021/08/23 01:29:17;;;;;;;5.07;3.72;;;;;;;12.91;100.00;96242.69;1023263;29;20270;-68
2021/08/23 01:30:04;;;;;;;4.85;3.83;;;;;;;12.93;100.00;96240.56;1020438;29;20859;-68
2021/08/23 01:30:42;;;;;;;6.38;4.20;;;;;;;12.93;100.00;96245.81;1023623;28;20533;-68
2021/08/23 01:31:23;;;;;;;7.25;4.45;;;;;;;12.94;100.00;96241.34;1022815;29;20672;-68
2021/08/23 01:31:56;;;;;;;;;;;;;;;12.94;100.00;96239.53;1027640;28;20262;-68
2021/08/23 01:32:26;;;;;;;7.05;4.10;;;;;;;12.88;100.00;96230.03;1028549;28;19910;-69
2021/08/23 01:32:57;;;;;;;6.68;4.15;;;;;;;12.89;100.00;96231.59;1022757;28;20275;-69
2021/08/23 01:33:27;;;;;;;13.75;5.10;;;;;;;12.90;100.00;96233.19;1021542;29;20039;-68
2021/08/23 01:33:58;;;;;;;6.28;4.72;;;;;;;12.95;100.00;96238.47;1022337;29;20070;-67
2021/08/23 01:34:31;;;;;;;7.40;4.63;;;;;;;12.93;100.00;96240.56;1019338;29;20020;-68
2021/08/23 01:35:03;;;;;;;6.68;3.92;;;;;;;12.91;100.00;96234.78;1018323;29;20020;-67
2021/08/23 01:35:33;;;;;;;6.93;4.75;;;;;;;12.92;100.00;96236.34;1019356;29;20303;-69
2021/08/23 01:36:04;;;;;;;5.18;3.72;;;;;;;12.94;100.00;96234.25;1011278;29;20332;-66
2021/08/23 01:36:35;;;;;;;5.53;3.92;;;;;;;12.93;100.00;96243.19;1011218;29;20024;-69
2021/08/23 01:37:05;;;;;;;8.20;4.72;;;;;;;12.92;100.00;96244.25;1011375;29;20494;-68
2021/08/23 01:37:36;;;;;;;5.05;4.03;;;;;;;12.94;100.00;96236.88;1015416;29;20052;-66
2021/08/23 01:38:06;;;;;;;5.80;4.35;;;;;;;12.95;100.00;96242.94;1016373;29;20063;-67
2021/08/23 01:38:37;;;;;;;5.85;4.40;;;;;;;12.95;100.00;96240.31;1018339;29;20577;-67
2021/08/23 01:39:07;;;;;;;6.97;4.15;;;;;;;12.95;100.00;96238.47;1019274;29;20486;-69
2021/08/23 01:39:39;;;;;;;5.45;4.13;;;;;;;12.94;100.00;96242.16;1019397;29;20474;-68
2021/08/23 01:40:09;;;;;;;6.28;3.97;;;;;;;12.95;100.00;96232.41;1017935;29;20450;-69
2021/08/23 01:40:40;;;;;;;5.43;4.22;;;;;;;12.92;100.00;96238.97;1019423;29;20316;-69
2021/08/23 01:41:10;;;;;;;7.22;4.63;;;;;;;12.97;100.00;96235.53;1020803;29;20062;-67
2021/08/23 01:41:41;;;;;;;6.05;4.00;;;;;;;12.96;100.00;96240.03;1018554;29;20072;-69
2021/08/23 01:42:11;;;;;;;7.95;4.60;;;;;;;12.97;100.00;96241.59;1023249;28;20031;-69
2021/08/23 01:42:43;;;;;;;11.85;4.28;;;;;;;12.96;100.00;96229.50;1022875;29;20022;-70
2021/08/23 01:43:13;;;;;;;6.38;4.22;;;;;;;12.99;100.00;96241.34;1019299;29;20035;-69
2021/08/23 01:43:44;;;;;;;5.60;4.13;;;;;;;12.97;100.00;96236.31;1021576;28;20251;-68
2021/08/23 01:44:14;;;;;;;9.10;4.38;;;;;;;13.00;100.00;96240.28;1021171;28;20086;-67
2021/08/23 01:44:45;;;;;;;6.63;4.50;;;;;;;13.02;100.00;96238.19;1023907;28;21000;-69
2021/08/23 01:45:15;;;;;;;9.50;4.60;;;;;;;13.01;100.00;96241.06;1022048;28;20515;-68
2021/08/23 01:45:45;;;;;;;7.20;4.32;;;;;;;13.02;100.00;96237.41;1029546;28;20049;-67
2021/08/23 01:46:16;;;;;;;10.40;5.00;;;;;;;12.98;100.00;96232.66;1026623;28;20027;-67
2021/08/23 01:46:47;;;;;;;5.78;4.25;;;;;;;13.02;100.00;96245.31;1022204;28;20062;-67
2021/08/23 01:47:17;;;;;;;6.22;4.68;;;;;;;13.02;100.00;96242.66;1022849;29;20400;-69
2021/08/23 01:47:47;;;;;;;6.53;4.30;;;;;;;13.02;100.00;96245.31;1019149;28;20024;-67
2021/08/23 01:48:18;;;;;;;5.25;4.05;;;;;;;13.04;100.00;96243.19;1026141;28;20023;-67
2021/08/23 01:48:48;;;;;;;6.72;4.07;;;;;;;13.05;100.00;96242.13;1026752;28;20059;-68
2021/08/23 01:49:19;;;;;;;5.30;3.67;;;;;;;13.02;100.00;96238.19;1022217;29;20028;-66
2021/08/23 01:49:49;;;;;;;5.32;3.97;;;;;;;12.90;100.00;96227.13;1018743;29;20020;-67
2021/08/23 01:50:20;;;;;;;5.65;4.15;;;;;;;13.06;100.00;96244.50;1019034;29;20028;-69
2021/08/23 01:50:50;;;;;;;6.47;4.13;;;;;;;13.07;100.00;96250.56;1019156;29;20024;-70
2021/08/23 01:51:21;;;;;;;7.80;4.68;;;;;;;13.07;100.00;96250.56;1021861;28;20453;-68
2021/08/23 01:51:53;;;;;;;5.68;4.40;;;;;;;12.98;100.00;96234.50;1024561;28;20212;-70
2021/08/23 01:52:25;;;;;;;4.95;3.85;;;;;;;13.05;100.00;96242.94;1022961;28;20031;-69
2021/08/23 01:52:56;;;;;;;9.60;4.18;;;;;;;13.08;100.00;96246.88;1020351;28;20271;-68
2021/08/23 01:53:26;;;;;;;5.07;3.70;;;;;;;13.07;100.00;96246.06;1026327;28;20822;-69
2021/08/23 01:53:57;;;;;;;6.10;3.80;;;;;;;13.08;100.00;96245.03;1018477;29;20481;-69
2021/08/23 01:54:28;;;;;;;5.38;3.90;;;;;;;13.05;100.00;96237.66;1013581;29;20439;-69
2021/08/23 01:54:58;;;;;;;5.80;4.15;;;;;;;13.10;100.00;96242.13;1023082;28;20019;-66
2021/08/23 01:55:28;;;;;;;5.20;3.75;;;;;;;13.09;100.00;96243.19;1023198;28;20856;-69
2021/08/23 01:56:01;;;;;;;5.47;4.00;;;;;;;13.06;100.00;96244.50;1018538;29;20395;-68
2021/08/23 01:56:31;;;;;;;7.65;3.97;;;;;;;13.11;100.00;96251.59;1019114;29;20024;-69
2021/08/23 01:57:03;;;;;;;5.68;4.32;;;;;;;13.07;100.00;96240.00;1019449;29;20264;-68
2021/08/23 01:57:33;;;;;;;7.00;4.55;;;;;;;13.10;100.00;96244.75;1023541;28;20074;-70
2021/08/23 01:58:04;;;;;;;6.05;3.90;;;;;;;13.12;100.00;96246.06;1026190;28;20325;-69
2021/08/23 01:58:35;;;;;;;8.07;4.63;;;;;;;13.12;100.00;96247.94;1031112;28;20037;-70
2021/08/23 01:59:05;;;;;;;4.70;4.18;;;;;;;13.13;100.00;96249.50;1031027;28;20034;-69
2021/08/23 01:59:36;;;;;;;6.75;4.43;;;;;;;13.13;100.00;96244.22;1025924;28;20497;-68
2021/08/23 02:00:06;;;;;;;7.35;4.70;;;;;;;13.14;100.00;96248.44;1030897;28;20030;-70
2021/08/23 02:00:37;;;;;;;5.28;4.22;;;;;;;13.15;100.00;96247.41;1030337;28;20021;-69
2021/08/23 02:01:07;;;;;;;4.28;3.85;;;;;;;13.13;100.00;96244.22;1030232;28;20037;-70
2021/08/23 02:01:38;;;;;;;5.80;3.75;;;;;;;12.97;100.00;96225.00;1030287;28;20534;-69
2021/08/23 02:02:08;;;;;;;5.80;4.63;;;;;;;13.14;100.00;96243.16;1024781;28;20030;-69
2021/08/23 02:02:39;;;;;;;5.82;4.10;;;;;;;13.15;100.00;96247.41;1024109;28;20047;-68
2021/08/23 02:03:09;;;;;;;5.65;4.15;;;;;;;13.14;100.00;96245.78;1027065;28;20428;-69
2021/08/23 02:03:40;;;;;;;5.10;3.88;;;;;;;13.14;100.00;96243.94;1030069;28;20534;-70
2021/08/23 02:04:11;;;;;;;6.03;4.38;;;;;;;13.16;100.00;96244.47;1031058;28;20033;-68
2021/08/23 02:04:41;;;;;;;6.72;4.45;;;;;;;13.16;100.00;96243.69;1035060;28;20026;-70
2021/08/23 02:05:12;;;;;;;5.95;4.72;;;;;;;13.18;100.00;96245.03;1027107;28;20038;-68
2021/08/23 02:05:42;;;;;;;6.22;4.05;;;;;;;13.18;100.00;96249.50;1026318;28;20034;-69
2021/08/23 02:06:13;;;;;;;6.65;4.13;;;;;;;13.17;100.00;96250.53;1022661;29;20087;-69
2021/08/23 02:06:43;;;;;;;7.60;4.20;;;;;;;13.17;100.00;96242.63;1023295;28;20015;-67
2021/08/23 02:07:13;;;;;;;6.25;3.95;;;;;;;13.17;100.00;96245.28;1026101;28;21390;-66
2021/08/23 02:07:44;;;;;;;5.90;4.10;;;;;;;13.16;100.00;96254.25;1026978;28;20027;-68
2021/08/23 02:08:15;;;;;;;4.03;3.63;;;;;;;13.17;100.00;96250.53;1026863;28;20034;-70
2021/08/23 02:08:46;;;;;;;9.95;3.95;;;;;;;13.19;100.00;96243.94;1026633;28;20015;-69
2021/08/23 02:09:16;;;;;;;6.00;4.07;;;;;;;13.19;100.00;96251.06;1028288;28;20288;-69
2021/08/23 02:09:46;;;;;;;7.15;4.05;;;;;;;13.19;100.00;96248.44;1030895;28;20042;-69
2021/08/23 02:10:17;;;;;;;7.35;4.10;;;;;;;13.14;100.00;96240.53;1026834;28;20038;-68
2021/08/23 02:10:47;;;;;;;7.10;4.68;;;;;;;13.20;100.00;96250.00;1021338;29;20027;-70
2021/08/23 02:11:18;;;;;;;5.63;4.20;;;;;;;13.20;100.00;96256.06;1022292;29;20031;-70
2021/08/23 02:11:49;;;;;;;5.93;4.18;;;;;;;13.21;100.00;96256.84;1011103;29;20140;-69
2021/08/23 02:12:19;;;;;;;5.25;4.18;;;;;;;13.23;100.00;96253.97;1012165;29;20065;-69
2021/08/23 02:12:50;;;;;;;7.35;4.60;;;;;;;13.22;100.00;96250.53;1014993;29;20036;-68
2021/08/23 02:13:20;;;;;;;8.27;4.75;;;;;;;13.17;100.00;96240.00;1015097;29;20031;-68
2021/08/23 02:13:53;;;;;;;6.15;4.13;;;;;;;13.24;100.00;96256.34;1014781;29;20031;-69
2021/08/23 02:14:24;;;;;;;4.50;3.95;;;;;;;13.24;100.00;96252.91;1022757;29;20083;-68
2021/08/23 02:14:54;;;;;;;6.45;3.83;;;;;;;13.23;100.00;96249.47;1023473;28;20038;-68
2021/08/23 02:15:25;;;;;;;6.13;3.72;;;;;;;13.23;100.00;96249.47;1026952;28;20030;-68
2021/08/23 02:15:55;;;;;;;6.38;4.53;;;;;;;13.23;100.00;96248.69;1022626;28;20153;-68
2021/08/23 02:16:26;;;;;;;5.43;4.03;;;;;;;13.24;100.00;96247.63;1030951;28;20034;-68
2021/08/23 02:16:59;;;;;;;4.50;4.00;;;;;;;13.25;100.00;96250.03;1030904;28;20069;-68
2021/08/23 02:17:29;;;;;;;4.60;4.18;;;;;;;13.23;100.00;96243.41;1024895;28;20671;-67
2021/08/23 02:18:00;;;;;;;6.55;4.32;;;;;;;13.18;100.00;96237.13;1023380;28;20095;-69
2021/08/23 02:18:33;;;;;;;5.28;3.83;;;;;;;13.25;100.00;96244.00;1024358;28;20511;-68
2021/08/23 02:19:04;;;;;;;6.47;4.15;;;;;;;13.25;100.00;96241.34;1023231;28;20023;-67
2021/08/23 02:19:34;;;;;;;4.25;3.50;;;;;;;13.23;100.00;96246.84;1028897;28;20030;-69
2021/08/23 02:20:06;;;;;;;5.88;4.20;;;;;;;13.23;100.00;96238.94;1025907;28;20031;-66
2021/08/23 02:20:36;;;;;;;6.03;4.15;;;;;;;13.23;100.00;96246.06;1019501;28;20098;-67
2021/08/23 02:21:07;;;;;;;5.72;3.92;;;;;;;13.22;100.00;96242.63;1022450;28;20039;-68
2021/08/23 02:21:53;;;;;;;6.78;4.35;;;;;;;13.16;100.00;96233.16;1017743;29;20027;-66
2021/08/23 02:22:24;;;;;;;6.00;4.30;;;;;;;13.16;100.00;96241.06;1022492;29;20066;-69
2021/08/23 02:22:54;;;;;;;4.53;4.10;;;;;;;13.19;100.00;96237.91;1016674;29;20276;-67
2021/08/23 02:23:25;;;;;;;4.72;3.88;;;;;;;13.20;100.00;96236.84;1018658;29;20454;-68
2021/08/23 02:23:55;;;;;;;7.60;3.85;;;;;;;13.21;100.00;96235.75;1014915;29;20170;-70
2021/08/23 02:24:28;;;;;;;8.40;4.38;;;;;;;13.20;100.00;96244.75;1017970;29;20031;-68
2021/08/23 02:24:58;;;;;;;3.72;3.33;;;;;;;13.17;100.00;96242.63;1018693;28;20027;-65
2021/08/23 02:25:29;;;;;;;4.10;3.45;;;;;;;13.17;100.00;96234.72;1018736;29;20282;-69
2021/08/23 02:25:59;;;;;;;5.15;3.55;;;;;;;13.24;100.00;96235.25;1018210;29;20040;-69
2021/08/23 02:26:30;;;;;;;6.80;3.80;;;;;;;13.24;100.00;96242.34;1022696;29;20023;-67
2021/08/23 02:27:00;;;;;;;5.85;3.97;;;;;;;13.23;100.00;96233.66;1018842;29;20024;-69
2021/08/23 02:27:31;;;;;;;6.55;3.75;;;;;;;13.23;100.00;96238.94;1019012;29;20055;-68
2021/08/23 02:28:01;;;;;;;5.90;4.10;;;;;;;13.25;100.00;96242.13;1018820;28;20035;-68
2021/08/23 02:28:32;;;;;;;7.13;4.03;;;;;;;13.24;100.00;96235.25;1018944;29;20126;-68
2021/08/23 02:29:02;;;;;;;7.07;3.97;;;;;;;13.23;100.00;96241.56;1018902;29;20404;-69